createdAt,value
2019-01-25T00:02:44.315Z,22.97
2019-01-25T00:05:48.764Z,23.60
2019-01-25T00:08:53.202Z,23.60
2019-01-25T00:11:57.947Z,22.60
2019-01-25T00:15:02.404Z,22.47
2019-01-25T00:18:07.504Z,21.07
2019-01-25T00:21:11.953Z,21.60
2019-01-25T00:24:16.391Z,22.43
2019-01-25T00:27:20.907Z,21.87
2019-01-25T00:30:25.424Z,21.57
2019-01-25T00:33:29.891Z,20.77
2019-01-25T00:36:34.345Z,21.67
2019-01-25T00:39:39.197Z,21.50
2019-01-25T00:42:43.937Z,22.63
2019-01-25T00:45:48.396Z,22.30
2019-01-25T00:48:52.859Z,23.27
2019-01-25T00:51:57.323Z,24.57
2019-01-25T00:55:01.775Z,22.43
2019-01-25T00:58:06.873Z,24.80
2019-01-25T01:01:11.706Z,24.33
2019-01-25T01:04:16.436Z,25.50
2019-01-25T01:07:20.967Z,25.30
2019-01-25T01:10:25.700Z,27.17
2019-01-25T01:13:30.149Z,26.03
2019-01-25T01:16:34.976Z,28.83
2019-01-25T01:19:39.394Z,28.50
2019-01-25T01:22:43.849Z,29.20
2019-01-25T01:25:48.737Z,29.37
2019-01-25T01:28:53.453Z,28.07
2019-01-25T01:31:57.912Z,29.47
2019-01-25T01:35:02.610Z,29.17
2019-01-25T01:38:07.407Z,29.73
2019-01-25T01:41:11.874Z,28.93
2019-01-25T01:44:16.316Z,28.10
2019-01-25T01:47:21.017Z,29.90
2019-01-25T01:50:25.466Z,28.83
2019-01-25T01:53:29.926Z,28.93
2019-01-25T01:56:34.413Z,29.97
2019-01-25T01:59:39.120Z,31.80
2019-01-25T02:02:43.592Z,31.83
2019-01-25T02:05:48.031Z,31.57
2019-01-25T02:08:52.796Z,31.87
2019-01-25T02:11:57.270Z,30.73
2019-01-25T02:15:01.709Z,31.80
2019-01-25T02:18:06.335Z,32.37
2019-01-25T02:21:11.208Z,30.40
2019-01-25T02:24:15.940Z,31.23
2019-01-25T02:27:20.401Z,31.37
2019-01-25T02:30:26.608Z,32.10
2019-01-25T02:33:31.052Z,30.90
2019-01-25T02:36:35.512Z,32.67
2019-01-25T02:39:39.956Z,33.40
2019-01-25T02:42:44.574Z,30.90
2019-01-25T02:45:49.361Z,30.70
2019-01-25T02:48:54.042Z,31.10
2019-01-25T02:51:58.842Z,32.63
2019-01-25T02:55:03.284Z,32.43
2019-01-25T02:58:07.833Z,31.27
2019-01-25T03:01:12.243Z,32.93
2019-01-25T03:04:16.688Z,31.00
2019-01-25T03:07:21.449Z,31.13
2019-01-25T03:10:28.931Z,30.00
2019-01-25T03:13:32.337Z,28.87
2019-01-25T03:16:37.082Z,29.43
2019-01-25T03:19:41.521Z,28.87
2019-01-25T03:22:46.015Z,26.60
2019-01-25T03:25:50.463Z,29.00
2019-01-25T03:28:54.912Z,28.10
2019-01-25T03:31:59.366Z,27.23
2019-01-25T03:35:05.246Z,27.17
2019-01-25T03:38:09.695Z,29.47
2019-01-25T03:41:14.521Z,29.10
2019-01-25T03:44:18.984Z,29.90
2019-01-25T03:47:23.439Z,30.47
2019-01-25T03:50:30.287Z,31.93
2019-01-25T03:53:34.736Z,31.17
2019-01-25T03:56:39.210Z,27.93
2019-01-25T03:59:43.662Z,27.53
2019-01-25T04:02:48.460Z,28.93
2019-01-25T04:05:52.884Z,29.87
2019-01-25T04:08:57.342Z,28.70
2019-01-25T04:12:02.124Z,27.27
2019-01-25T04:15:13.841Z,27.90
2019-01-25T04:18:18.290Z,31.53
2019-01-25T04:21:22.730Z,30.60
2019-01-25T04:24:27.180Z,29.00
2019-01-25T04:27:31.926Z,32.13
2019-01-25T04:30:36.692Z,31.57
2019-01-25T04:33:41.385Z,31.23
2019-01-25T04:36:45.826Z,31.27
2019-01-25T04:39:50.284Z,31.20
2019-01-25T04:42:54.909Z,32.07
2019-01-25T04:45:59.348Z,32.73
2019-01-25T04:49:04.126Z,33.40
2019-01-25T04:52:13.403Z,31.57
2019-01-25T04:55:32.765Z,31.73
2019-01-25T04:58:37.196Z,33.00
2019-01-25T05:01:41.637Z,30.60
2019-01-25T05:04:46.086Z,30.47
2019-01-25T05:07:50.537Z,33.33
2019-01-25T05:10:55.255Z,33.00
2019-01-25T05:13:59.716Z,31.47
2019-01-25T05:17:04.279Z,32.67
2019-01-25T05:20:09.571Z,31.93
2019-01-25T05:23:14.287Z,32.83
2019-01-25T05:26:18.867Z,34.37
2019-01-25T05:29:26.191Z,35.10
2019-01-25T05:32:30.929Z,34.80
2019-01-25T05:35:37.417Z,36.97
2019-01-25T05:38:46.196Z,36.87
2019-01-25T05:41:52.909Z,33.80
2019-01-25T05:44:57.640Z,34.57
2019-01-25T05:48:02.375Z,35.57
2019-01-25T05:51:07.357Z,36.20
2019-01-25T05:54:11.851Z,34.20
2019-01-25T05:57:16.293Z,35.77
2019-01-25T06:00:25.623Z,36.37
2019-01-25T06:03:30.067Z,33.33
2019-01-25T06:06:34.512Z,34.90
2019-01-25T06:09:39.284Z,33.50
2019-01-25T06:12:43.735Z,34.57
2019-01-25T06:15:48.187Z,35.37
2019-01-25T06:18:52.632Z,35.93
2019-01-25T06:21:57.901Z,33.43
2019-01-25T06:25:02.358Z,36.70
2019-01-25T06:28:07.968Z,35.90
2019-01-25T06:31:14.540Z,36.30
2019-01-25T06:34:18.994Z,34.97
2019-01-25T06:37:23.694Z,35.60
2019-01-25T06:40:28.424Z,34.10
2019-01-25T06:43:32.864Z,33.37
2019-01-25T06:46:37.323Z,36.23
2019-01-25T06:49:41.775Z,33.77
2019-01-25T06:52:46.523Z,34.53
2019-01-25T06:55:50.969Z,35.33
2019-01-25T06:58:57.315Z,33.60
2019-01-25T07:02:03.638Z,32.40
2019-01-25T07:05:09.494Z,34.57
2019-01-25T07:08:15.912Z,35.27
2019-01-25T07:11:20.356Z,31.70
2019-01-25T07:14:24.815Z,33.37
2019-01-25T07:17:29.263Z,31.33
2019-01-25T07:20:33.710Z,32.87
2019-01-25T07:23:38.440Z,31.10
2019-01-25T07:26:42.893Z,32.23
2019-01-25T07:29:47.598Z,29.80
2019-01-25T07:32:52.111Z,29.47
2019-01-25T07:35:56.959Z,30.97
2019-01-25T07:39:04.832Z,30.67
2019-01-25T07:42:09.619Z,28.97
2019-01-25T07:45:15.504Z,28.50
2019-01-25T07:48:20.155Z,28.63
2019-01-25T07:51:24.914Z,29.23
2019-01-25T07:54:29.762Z,29.57
2019-01-25T07:57:34.680Z,29.03
2019-01-25T08:00:39.156Z,28.03
2019-01-25T08:03:43.829Z,27.37
2019-01-25T08:06:48.286Z,26.90
2019-01-25T08:09:52.985Z,26.23
2019-01-25T08:12:57.486Z,24.80
2019-01-25T08:16:03.124Z,26.53
2019-01-25T08:19:07.582Z,25.97
2019-01-25T08:22:12.445Z,26.67
2019-01-25T08:25:17.457Z,26.00
2019-01-25T08:28:22.192Z,26.07
2019-01-25T08:31:26.646Z,26.23
2019-01-25T08:34:31.341Z,27.37
2019-01-25T08:37:35.800Z,27.87
2019-01-25T08:40:41.964Z,26.13
2019-01-25T08:43:46.581Z,28.00
2019-01-25T08:46:50.986Z,28.37
2019-01-25T08:49:57.874Z,25.83
2019-01-25T08:53:01.932Z,28.13
2019-01-25T08:56:06.406Z,28.73
2019-01-25T08:59:10.884Z,27.27
2019-01-25T09:02:15.296Z,27.03
2019-01-25T09:05:20.474Z,26.33
2019-01-25T09:08:24.928Z,27.00
2019-01-25T09:11:29.374Z,27.20
2019-01-25T09:14:33.824Z,27.77
2019-01-25T09:17:38.279Z,26.63
2019-01-25T09:20:42.727Z,24.87
2019-01-25T09:23:47.445Z,25.80
2019-01-25T09:26:51.891Z,25.13
2019-01-25T09:29:56.326Z,25.00
2019-01-25T09:33:00.775Z,25.93
2019-01-25T09:36:05.334Z,22.93
2019-01-25T09:39:10.021Z,24.60
2019-01-25T09:42:14.699Z,24.97
2019-01-25T09:45:19.133Z,23.77
2019-01-25T09:48:23.857Z,23.37
2019-01-25T09:51:28.287Z,24.13
2019-01-25T09:54:33.011Z,23.57
2019-01-25T09:57:37.741Z,23.73
2019-01-25T10:00:56.701Z,22.67
2019-01-25T10:04:01.141Z,23.17
2019-01-25T10:07:05.738Z,22.27
2019-01-25T10:10:11.127Z,23.90
2019-01-25T10:13:15.570Z,23.13
2019-01-25T10:16:20.011Z,22.50
2019-01-25T10:19:24.779Z,23.47
2019-01-25T10:22:29.224Z,23.90
2019-01-25T10:25:33.656Z,21.90
2019-01-25T10:28:38.357Z,22.23
2019-01-25T10:31:42.797Z,20.03
2019-01-25T10:34:47.510Z,21.90
2019-01-25T10:37:53.157Z,21.67
2019-01-25T10:40:57.587Z,21.83
2019-01-25T10:44:02.045Z,22.33
2019-01-25T10:47:06.750Z,20.27
2019-01-25T10:50:11.678Z,20.53
2019-01-25T10:53:16.125Z,21.17
2019-01-25T10:56:20.556Z,19.40
2019-01-25T10:59:25.257Z,21.10
2019-01-25T11:02:29.684Z,22.70
2019-01-25T11:05:34.196Z,20.97
2019-01-25T11:08:38.939Z,22.63
2019-01-25T11:11:43.380Z,22.17
2019-01-25T11:14:47.824Z,20.93
2019-01-25T11:17:52.431Z,20.50
2019-01-25T11:20:56.872Z,22.63
2019-01-25T11:24:01.570Z,21.67
2019-01-25T11:27:06.302Z,22.17
2019-01-25T11:30:15.464Z,22.73
2019-01-25T11:33:19.896Z,20.90
2019-01-25T11:36:24.336Z,21.97
2019-01-25T11:39:29.120Z,20.53
2019-01-25T11:42:33.553Z,20.77
2019-01-25T11:45:38.069Z,22.00
2019-01-25T11:48:42.508Z,21.80
2019-01-25T11:51:47.218Z,23.37
2019-01-25T11:54:51.660Z,21.10
2019-01-25T11:57:56.375Z,22.47
2019-01-25T12:01:00.818Z,20.37
2019-01-25T12:04:07.578Z,22.40
2019-01-25T12:07:12.003Z,21.70
2019-01-25T12:10:20.624Z,21.90
2019-01-25T12:13:25.508Z,21.47
2019-01-25T12:16:30.198Z,20.87
2019-01-25T12:19:34.666Z,20.33
2019-01-25T12:22:39.528Z,21.37
2019-01-25T12:25:44.072Z,19.70
2019-01-25T12:28:49.104Z,21.03
2019-01-25T12:31:53.626Z,22.33
2019-01-25T12:34:58.071Z,21.60
2019-01-25T12:38:02.785Z,21.57
2019-01-25T12:41:07.637Z,22.70
2019-01-25T12:44:12.057Z,22.93
2019-01-25T12:47:16.771Z,22.27
2019-01-25T12:50:28.442Z,24.23
2019-01-25T12:53:34.320Z,22.10
2019-01-25T12:56:39.050Z,22.13
2019-01-25T12:59:43.785Z,23.17
2019-01-25T13:02:48.219Z,22.27
2019-01-25T13:05:52.798Z,22.83
2019-01-25T13:08:57.234Z,21.70
2019-01-25T13:12:01.668Z,19.60
2019-01-25T13:15:09.328Z,19.60
2019-01-25T13:18:13.928Z,17.97
2019-01-25T13:21:18.373Z,17.43
2019-01-25T13:24:22.809Z,17.27
2019-01-25T13:27:27.241Z,19.23
2019-01-25T13:30:32.619Z,18.83
2019-01-25T13:33:37.464Z,18.20
2019-01-25T13:36:41.902Z,18.80
2019-01-25T13:39:46.351Z,18.40
2019-01-25T13:42:50.781Z,18.73
2019-01-25T13:45:55.219Z,17.67
2019-01-25T13:48:59.650Z,19.77
2019-01-25T13:52:04.092Z,17.93
2019-01-25T13:55:12.061Z,16.53
2019-01-25T13:58:16.491Z,18.07
2019-01-25T14:01:21.269Z,19.20
2019-01-25T14:04:25.711Z,16.63
2019-01-25T14:07:30.433Z,18.47
2019-01-25T14:10:36.985Z,18.37
2019-01-25T14:13:46.686Z,19.33
2019-01-25T14:16:47.890Z,19.23
2019-01-25T14:19:52.619Z,18.83
2019-01-25T14:22:57.049Z,15.80
2019-01-25T14:26:01.492Z,14.67
2019-01-25T14:29:07.165Z,17.40
2019-01-25T14:32:11.672Z,15.33
2019-01-25T14:35:16.119Z,16.93
2019-01-25T14:38:20.805Z,16.77
2019-01-25T14:41:25.250Z,15.80
2019-01-25T14:44:29.958Z,16.07
2019-01-25T14:47:34.408Z,16.80
2019-01-25T14:50:39.109Z,16.37
2019-01-25T14:53:43.841Z,16.70
2019-01-25T14:56:48.580Z,16.93
2019-01-25T14:59:53.305Z,18.67
2019-01-25T15:02:57.754Z,17.47
2019-01-25T15:06:02.194Z,12.80
2019-01-25T15:09:09.508Z,12.17
2019-01-25T15:12:13.953Z,11.83
2019-01-25T15:15:18.379Z,10.30
2019-01-25T15:18:23.120Z,9.43
2019-01-25T15:21:27.564Z,9.83
2019-01-25T15:24:31.998Z,10.23
2019-01-25T15:27:36.695Z,10.53
2019-01-25T15:30:41.142Z,11.63
2019-01-25T15:33:45.852Z,10.13
2019-01-25T15:36:50.285Z,9.40
2019-01-25T15:39:54.874Z,9.90
2019-01-25T15:42:59.317Z,9.47
2019-01-25T15:46:03.755Z,9.63
2019-01-25T15:49:08.188Z,10.17
2019-01-25T15:52:12.908Z,10.87
2019-01-25T15:55:18.373Z,9.13
2019-01-25T15:58:23.084Z,9.27
2019-01-25T16:01:27.819Z,8.37
2019-01-25T16:04:34.939Z,8.60
2019-01-25T16:07:39.022Z,7.80
2019-01-25T16:10:43.746Z,8.10
2019-01-25T16:13:49.831Z,8.07
2019-01-25T16:16:54.743Z,8.53
2019-01-25T16:19:59.173Z,7.37
2019-01-25T16:23:03.681Z,8.30
2019-01-25T16:26:08.424Z,7.97
2019-01-25T16:29:12.861Z,7.87
2019-01-25T16:32:17.580Z,8.33
2019-01-25T16:35:22.317Z,7.33
2019-01-25T16:38:27.037Z,7.90
2019-01-25T16:41:31.782Z,8.37
2019-01-25T16:44:36.369Z,8.93
2019-01-25T16:47:41.235Z,10.67
2019-01-25T16:50:45.675Z,10.13
2019-01-25T16:53:50.118Z,9.13
2019-01-25T16:56:54.893Z,7.60
2019-01-25T16:59:59.648Z,8.77
2019-01-25T17:03:04.498Z,9.33
2019-01-25T17:06:09.096Z,9.53
2019-01-25T17:09:13.842Z,9.37
2019-01-25T17:12:18.273Z,9.60
2019-01-25T17:15:22.991Z,9.83
2019-01-25T17:18:27.719Z,9.30
2019-01-25T17:21:32.153Z,10.13
2019-01-25T17:24:37.246Z,10.10
2019-01-25T17:27:41.912Z,10.13
2019-01-25T17:30:46.648Z,10.30
2019-01-25T17:33:51.101Z,13.50
2019-01-25T17:36:55.616Z,13.90
2019-01-25T17:40:00.451Z,13.50
2019-01-25T17:43:05.446Z,14.50
2019-01-25T17:46:10.201Z,15.47
2019-01-25T17:49:14.773Z,15.57
2019-01-25T17:52:19.658Z,15.53
2019-01-25T17:55:24.287Z,14.60
2019-01-25T17:58:28.915Z,16.00
2019-01-25T18:01:33.351Z,14.17
2019-01-25T18:04:38.005Z,15.13
2019-01-25T18:07:44.239Z,14.33
2019-01-25T18:10:49.147Z,13.77
2019-01-25T18:13:53.555Z,14.00
2019-01-25T18:16:58.633Z,14.53
2019-01-25T18:20:03.255Z,15.60
2019-01-25T18:23:07.674Z,13.90
2019-01-25T18:26:12.186Z,14.73
2019-01-25T18:29:17.047Z,13.50
2019-01-25T18:32:21.840Z,15.27
2019-01-25T18:35:26.299Z,14.23
2019-01-25T18:38:31.028Z,13.60
2019-01-25T18:41:35.505Z,13.00
2019-01-25T18:44:39.936Z,12.13
2019-01-25T18:47:44.435Z,12.57
2019-01-25T18:50:49.134Z,12.60
2019-01-25T18:53:53.868Z,14.77
2019-01-25T18:56:58.702Z,12.90
2019-01-25T19:00:03.422Z,10.30
2019-01-25T19:03:08.146Z,9.33
2019-01-25T19:06:12.889Z,9.03
2019-01-25T19:09:17.563Z,8.20
2019-01-25T19:12:22.509Z,8.70
2019-01-25T19:15:30.767Z,9.37
2019-01-25T19:18:35.515Z,8.80
2019-01-25T19:21:39.956Z,7.43
2019-01-25T19:24:44.397Z,8.57
2019-01-25T19:27:48.951Z,8.53
2019-01-25T19:30:54.429Z,8.13
2019-01-25T19:33:58.851Z,8.13
2019-01-25T19:37:03.299Z,8.57
2019-01-25T19:40:30.428Z,8.67
2019-01-25T19:43:34.864Z,8.73
2019-01-25T19:46:39.306Z,8.83
2019-01-25T19:49:44.007Z,8.77
2019-01-25T19:52:48.734Z,8.50
2019-01-25T19:55:53.167Z,8.47
2019-01-25T19:58:57.603Z,8.60
2019-01-25T20:02:02.314Z,8.53
2019-01-25T20:05:11.838Z,8.27
2019-01-25T20:08:16.346Z,8.00
2019-01-25T20:11:21.105Z,8.50
2019-01-25T20:14:27.439Z,7.57
2019-01-25T20:17:32.205Z,7.90
2019-01-25T20:20:39.811Z,7.93
2019-01-25T20:23:44.290Z,8.40
2019-01-25T20:26:49.067Z,7.50
2019-01-25T20:29:53.801Z,7.37
2019-01-25T20:32:59.081Z,7.70
2019-01-25T20:36:03.585Z,7.07
2019-01-25T20:39:08.862Z,7.53
2019-01-25T20:42:13.903Z,7.40
2019-01-25T20:45:27.285Z,7.00
2019-01-25T20:48:33.432Z,7.93
2019-01-25T20:51:38.134Z,8.43
2019-01-25T20:54:42.551Z,8.63
2019-01-25T20:57:47.237Z,7.20
2019-01-25T21:00:52.032Z,6.93
2019-01-25T21:03:56.463Z,7.07
2019-01-25T21:07:00.965Z,7.40
2019-01-25T21:10:10.254Z,7.53
2019-01-25T21:13:14.691Z,7.60
2019-01-25T21:16:19.162Z,7.47
2019-01-25T21:19:23.919Z,8.90
2019-01-25T21:22:28.661Z,7.87
2019-01-25T21:25:33.427Z,7.93
2019-01-25T21:28:37.861Z,7.40
2019-01-25T21:31:42.566Z,7.53
2019-01-25T21:34:47.273Z,8.37
2019-01-25T21:37:51.757Z,8.90
2019-01-25T21:40:56.181Z,8.73
2019-01-25T21:44:00.947Z,8.13
2019-01-25T21:47:05.888Z,8.27
2019-01-25T21:50:28.615Z,8.30
2019-01-25T21:53:33.049Z,8.37
2019-01-25T21:56:37.796Z,7.63
2019-01-25T21:59:42.323Z,7.50
2019-01-25T22:02:46.781Z,7.40
2019-01-25T22:05:51.205Z,8.17
2019-01-25T22:08:55.966Z,7.40
2019-01-25T22:12:00.417Z,7.17
2019-01-25T22:15:07.900Z,8.03
2019-01-25T22:18:12.873Z,7.90
2019-01-25T22:21:17.303Z,8.73
2019-01-25T22:24:22.138Z,7.97
2019-01-25T22:27:26.849Z,8.43
2019-01-25T22:30:31.352Z,7.63
2019-01-25T22:33:36.107Z,9.37
2019-01-25T22:36:40.843Z,8.30
2019-01-25T22:39:45.292Z,8.33
2019-01-25T22:42:50.001Z,7.53
2019-01-25T22:45:58.730Z,7.30
2019-01-25T22:49:00.647Z,7.97
2019-01-25T22:52:05.345Z,8.63
2019-01-25T22:55:14.431Z,7.87
2019-01-25T22:58:19.167Z,7.67
2019-01-25T23:01:25.607Z,7.50
2019-01-25T23:04:34.748Z,7.43
2019-01-25T23:07:39.197Z,7.87
2019-01-25T23:10:43.927Z,7.60
2019-01-25T23:13:48.376Z,7.43
2019-01-25T23:16:52.977Z,7.33
2019-01-25T23:19:57.414Z,7.83
2019-01-25T23:23:01.838Z,7.83
2019-01-25T23:26:06.281Z,8.37
2019-01-25T23:29:10.714Z,8.33
2019-01-25T23:32:15.144Z,8.10
2019-01-25T23:35:19.576Z,7.77
2019-01-25T23:38:24.007Z,8.10
2019-01-25T23:41:28.447Z,7.40
2019-01-25T23:44:33.204Z,7.00
2019-01-25T23:47:37.945Z,6.20
2019-01-25T23:50:42.372Z,6.80
2019-01-25T23:53:46.820Z,7.10
2019-01-25T23:56:51.615Z,6.57
2019-01-25T23:59:56.342Z,7.17
